Geneve-Cointrin Airport (GVA/LSGG)




Flight Aircraft Arriving
CPX1140 B738
EBLG - Liège Airport
Belgium Liege, Belgium
Flight Aircraft Departing
CPX1139 B738
EBLG - Liège Airport
Belgium Liege, Belgium
Airport Information
Location: Geneva, CH
Coordinates: 46.2381 / 6.10895
Elevation:
Time Offset:
Local Time:
UTC Time:
Jet A Price: $0.92/lbs

Current Weather
METAR: LSGG 220950Z VRB01KT 9999 BKN065 15/10 Q1019 NOSIG
TAF: TAF LSGG 220825Z 2209/2315 VRB03KT 9999 BKN070 TX15/2211Z TN10/2306Z TX13/2314Z TEMPO 2211/2309 RA PROB30 TEMPO 2302/2315 2900 BR BKN012 PROB30 TEMPO 2309/2315 SHRA FEW045TCU

Recent Arrivals
Date Flight Type Depart
09/21/2020 CPX1139 B738 Liège Airport (EBLG)
04/07/2020 CPX1139 B738 Liège Airport (EBLG)
11/27/2019 CPX1139 B738 Liège Airport (EBLG)
10/23/2019 CPX739 B738 Liège Airport (EBLG)
09/30/2019 CPX739 B738 Liège Airport (EBLG)
Recent Departures
Date Flight Type Arrive
04/09/2020 CPX1140 B738 Liège Airport (EBLG)
12/02/2019 CPX1140 B738 Liège Airport (EBLG)
10/26/2019 CPX740 B738 Liège Airport (EBLG)
10/02/2019 CPX740 B738 Liège Airport (EBLG)